Du har inga inställningar för hoppväder.nu

Hoppväder.nu

Senast uppdaterat 01:14

UTC-tid

2019-12-06 kl. 00:14


Sol och måne

Solen går upp 8:55 och går ner 15:17 (beräknade cirkatider)
Nästa fullmåne blir om 6 dagar (2019-12-12)

METAR

ENRY (Moss, Rygge)
(24 minuter sedan)
ENRY 052350Z AUTO 20014KT 9999NDV -RA FEW038/// 07/05 Q0987=



ESGT (Trollhättan/Vänersborg)
(24 minuter sedan)
ESGT 052350Z AUTO 21016KT 6000 R15/P2000N R33///// -RA BKN005/// BKN011/// OVC020/// 06/05 Q0992=



ENTO (Sandefjord)
(24 minuter sedan)
ENTO 052350Z AUTO 22011KT 9999 SCT055/// OVC070/// 06/04 Q0986=



ESIB (Såtenäs)
(24 minuter sedan)
ESIB 052350Z AUTO 21020KT 9000 -SHRA BKN012/// OVC016/// 06/06 Q0991=



ESOK (Karlstad)
(24 minuter sedan)
ESOK 052350Z AUTO 20011KT 7000 -RA FEW007/// SCT012/// BKN016/// 05/04 Q0989 REDZ=



TAF

ENRY (Moss, Rygge)
(74 minuter sedan)
ENRY 052300Z 0600/0624 21015KT 9999 -RA BKN012 TEMPO 0600/0605 3000 RADZ BR BKN004 BECMG 0605/0607 20005KT FEW012 PROB40 0605/0608 0700 FG VV002 PROB40 0617/0624 4000 -RA BR BKN004=



ESGT (Trollhättan/Vänersborg)
(404 minuter sedan)
ESGT 051730Z 0518/0522 23015G25KT 9999 BKN015 TEMPO 0518/0522 4000 RA DZ BKN011=



ENTO (Sandefjord)
(74 minuter sedan)
ENTO 052300Z 0600/0624 22018KT 9999 FEW008 BKN025 BECMG 0600/0602 -RA BKN008 TEMPO 0601/0606 3000 -RADZ BR BKN004 BECMG 0602/0604 25008KT BECMG 0605/0607 FEW012 PROB30 0617/0624 1500 -RA BCFG BKN004=



ESIB (Såtenäs)
(409 minuter sedan)
ESIB 051725Z 0518/0521 22020G30KT 9999 BKN017 TEMPO 0518/0521 6000 -SHRA BKN010TCU RMK MIL=



ESOK (Karlstad)
(404 minuter sedan)
ESOK 051730Z 0518/0521 22020G32KT 9999 BKN025 PROB40 0520/0521 4500 -RA=





Kodnycklar till TAF och METAR






LHP

(Näsinge är område I2b i Norra delen)

Prognos är inte uppdaterad




Spotting

Hur fungerar spotthjälpen och Vindkartan?

Markvind är ca 0 m/s.



Vindkartan

Senast uppdaterad 01:14




All data kommer från LFV.se